createdAt,value
2023-04-04T00:00:22.673Z,5.35
2023-04-04T00:02:50.574Z,5.53
2023-04-04T00:05:17.846Z,5.20
2023-04-04T00:07:48.343Z,5.00
2023-04-04T00:10:15.842Z,4.50
2023-04-04T00:12:43.977Z,5.38
2023-04-04T00:15:11.618Z,5.25
2023-04-04T00:17:39.005Z,5.43
2023-04-04T00:20:06.524Z,4.43
2023-04-04T00:22:33.641Z,4.90
2023-04-04T00:25:00.909Z,4.72
2023-04-04T00:27:28.045Z,5.28
2023-04-04T00:29:55.916Z,5.05
2023-04-04T00:32:23.249Z,4.10
2023-04-04T00:34:57.335Z,4.68
2023-04-04T00:37:24.815Z,4.95
2023-04-04T00:39:51.988Z,4.82
2023-04-04T00:42:19.164Z,4.75
2023-04-04T00:44:46.395Z,5.38
2023-04-04T00:47:16.693Z,4.97
2023-04-04T00:49:46.562Z,4.67
2023-04-04T00:52:13.777Z,5.43
2023-04-04T00:54:40.972Z,5.40
2023-04-04T00:57:09.488Z,5.50
2023-04-04T00:59:37.567Z,5.32
2023-04-04T01:02:04.904Z,5.85
2023-04-04T01:04:32.118Z,5.63
2023-04-04T01:07:00.543Z,5.50
2023-04-04T01:09:27.729Z,6.03
2023-04-04T01:11:55.915Z,5.40
2023-04-04T01:14:23.310Z,5.85
2023-04-04T01:16:51.630Z,5.38
2023-04-04T01:19:29.282Z,5.40
2023-04-04T01:21:57.512Z,6.00
2023-04-04T01:24:25.443Z,5.63
2023-04-04T01:26:52.645Z,5.55
2023-04-04T01:29:20.265Z,5.88
2023-04-04T01:31:54.560Z,6.28
2023-04-04T01:34:28.855Z,6.47
2023-04-04T01:37:07.224Z,6.25
2023-04-04T01:39:43.269Z,7.13
2023-04-04T01:42:10.590Z,6.15
2023-04-04T01:44:37.728Z,6.68
2023-04-04T01:47:08.758Z,6.68
2023-04-04T01:49:36.111Z,6.95
2023-04-04T01:52:04.052Z,6.80
2023-04-04T01:54:33.190Z,7.30
2023-04-04T01:57:00.375Z,7.47
2023-04-04T01:59:27.574Z,7.40
2023-04-04T02:01:54.874Z,7.88
2023-04-04T02:04:22.197Z,7.55
2023-04-04T02:06:50.175Z,7.50
2023-04-04T02:09:17.345Z,7.75
2023-04-04T02:11:44.521Z,9.25
2023-04-04T02:14:11.721Z,8.27
2023-04-04T02:16:39.106Z,9.32
2023-04-04T02:19:06.272Z,8.50
2023-04-04T02:21:33.369Z,9.13
2023-04-04T02:24:00.511Z,8.65
2023-04-04T02:26:27.686Z,9.25
2023-04-04T02:28:54.826Z,9.88
2023-04-04T02:31:22.928Z,9.82
2023-04-04T02:33:50.285Z,9.50
2023-04-04T02:36:17.473Z,8.45
2023-04-04T02:38:44.626Z,9.02
2023-04-04T02:41:11.780Z,7.90
2023-04-04T02:43:38.989Z,9.63
2023-04-04T02:46:20.653Z,7.85
2023-04-04T02:48:49.475Z,8.00
2023-04-04T02:51:16.819Z,8.48
2023-04-04T02:53:43.954Z,8.00
2023-04-04T02:56:11.178Z,8.50
2023-04-04T02:58:38.497Z,8.20
2023-04-04T03:01:06.582Z,7.97
2023-04-04T03:03:33.909Z,8.50
2023-04-04T03:06:01.497Z,8.45
2023-04-04T03:08:28.689Z,7.90
2023-04-04T03:10:55.906Z,8.55
2023-04-04T03:13:23.044Z,8.35
2023-04-04T03:15:50.466Z,8.48
2023-04-04T03:18:17.694Z,7.88
2023-04-04T03:20:44.796Z,8.23
2023-04-04T03:23:11.890Z,8.57
2023-04-04T03:25:39.086Z,8.85
2023-04-04T03:28:10.085Z,9.10
2023-04-04T03:30:37.321Z,7.93
2023-04-04T03:33:07.657Z,7.85
2023-04-04T03:35:38.527Z,7.85
2023-04-04T03:38:06.088Z,8.02
2023-04-04T03:40:33.483Z,8.80
2023-04-04T03:43:02.404Z,8.02
2023-04-04T03:45:30.301Z,7.55
2023-04-04T03:47:57.481Z,7.88
2023-04-04T03:50:24.727Z,8.10
2023-04-04T03:52:51.859Z,7.22
2023-04-04T03:55:19.211Z,7.75
2023-04-04T03:57:47.127Z,8.48
2023-04-04T04:00:14.642Z,7.32
2023-04-04T04:02:41.979Z,6.47
2023-04-04T04:05:09.389Z,7.57
2023-04-04T04:07:36.603Z,8.38
2023-04-04T04:10:03.928Z,8.50
2023-04-04T04:12:31.284Z,7.57
2023-04-04T04:14:58.415Z,7.25
2023-04-04T04:17:25.585Z,7.82
2023-04-04T04:19:52.698Z,8.40
2023-04-04T04:22:19.784Z,7.55
2023-04-04T04:24:46.960Z,8.48
2023-04-04T04:27:14.064Z,7.53
2023-04-04T04:29:41.259Z,7.50
2023-04-04T04:32:08.484Z,7.82
2023-04-04T04:34:35.609Z,7.13
2023-04-04T04:37:03.306Z,8.05
2023-04-04T04:39:30.483Z,7.50
2023-04-04T04:41:57.808Z,7.15
2023-04-04T04:44:25.002Z,6.75
2023-04-04T04:46:52.305Z,6.82
2023-04-04T04:49:19.543Z,7.22
2023-04-04T04:51:46.792Z,7.15
2023-04-04T04:54:13.948Z,7.25
2023-04-04T04:56:42.275Z,6.85
2023-04-04T04:59:11.235Z,7.85
2023-04-04T05:01:39.227Z,8.50
2023-04-04T05:04:06.445Z,7.03
2023-04-04T05:06:33.548Z,6.47
2023-04-04T05:09:00.810Z,6.05
2023-04-04T05:11:27.948Z,6.57
2023-04-04T05:13:55.108Z,6.18
2023-04-04T05:16:22.407Z,6.68
2023-04-04T05:18:49.560Z,6.97
2023-04-04T05:21:16.791Z,7.63
2023-04-04T05:23:45.274Z,7.65
2023-04-04T05:26:13.060Z,7.75
2023-04-04T05:28:41.093Z,8.63
2023-04-04T05:31:08.337Z,9.20
2023-04-04T05:33:35.516Z,9.98
2023-04-04T05:36:03.107Z,10.70
2023-04-04T05:38:31.444Z,9.88
2023-04-04T05:40:58.565Z,8.07
2023-04-04T05:43:25.684Z,7.85
2023-04-04T05:45:52.812Z,6.82
2023-04-04T05:48:19.955Z,7.80
2023-04-04T05:50:47.382Z,7.70
2023-04-04T05:53:15.298Z,7.03
2023-04-04T05:55:42.410Z,7.57
2023-04-04T05:58:10.872Z,7.55
2023-04-04T06:00:39.940Z,8.43
2023-04-04T06:03:07.360Z,7.75
2023-04-04T06:05:34.578Z,6.57
2023-04-04T06:08:01.855Z,8.05
2023-04-04T06:10:29.018Z,8.20
2023-04-04T06:12:56.142Z,7.60
2023-04-04T06:15:23.580Z,7.18
2023-04-04T06:17:50.868Z,7.22
2023-04-04T06:20:20.957Z,7.00
2023-04-04T06:22:48.293Z,8.20
2023-04-04T06:25:15.464Z,7.78
2023-04-04T06:27:42.616Z,7.55
2023-04-04T06:30:11.812Z,7.65
2023-04-04T06:32:39.983Z,8.35
2023-04-04T06:35:07.438Z,8.40
2023-04-04T06:37:34.576Z,7.60
2023-04-04T06:40:01.765Z,7.20
2023-04-04T06:42:28.892Z,7.88
2023-04-04T06:44:56.184Z,6.47
2023-04-04T06:47:23.356Z,7.32
2023-04-04T06:49:50.576Z,7.00
2023-04-04T06:52:17.755Z,6.53
2023-04-04T06:54:45.814Z,7.47
2023-04-04T06:57:13.015Z,7.57
2023-04-04T06:59:40.200Z,7.82
2023-04-04T07:02:07.489Z,8.23
2023-04-04T07:04:35.308Z,7.18
2023-04-04T07:07:02.899Z,6.72
2023-04-04T07:09:30.087Z,7.30
2023-04-04T07:11:57.357Z,7.30
2023-04-04T07:14:25.786Z,7.25
2023-04-04T07:16:53.830Z,7.05
2023-04-04T07:19:24.154Z,7.28
2023-04-04T07:21:51.395Z,7.20
2023-04-04T07:24:18.594Z,6.93
2023-04-04T07:26:45.785Z,7.20
2023-04-04T07:29:13.443Z,6.10
2023-04-04T07:31:40.852Z,7.10
2023-04-04T07:34:08.070Z,6.15
2023-04-04T07:36:35.398Z,6.68
2023-04-04T07:39:02.629Z,7.00
2023-04-04T07:41:29.720Z,7.32
2023-04-04T07:43:57.037Z,8.27
2023-04-04T07:46:24.356Z,8.32
2023-04-04T07:48:51.506Z,7.68
2023-04-04T07:51:20.818Z,6.93
2023-04-04T07:53:47.968Z,6.93
2023-04-04T07:56:15.046Z,7.80
2023-04-04T07:58:42.310Z,8.85
2023-04-04T08:01:09.612Z,9.60
2023-04-04T08:03:36.810Z,10.13
2023-04-04T08:06:04.158Z,10.60
2023-04-04T08:08:31.459Z,9.75
2023-04-04T08:10:58.630Z,9.73
2023-04-04T08:13:25.805Z,8.20
2023-04-04T08:15:52.949Z,9.48
2023-04-04T08:18:20.222Z,8.32
2023-04-04T08:20:47.645Z,8.63
2023-04-04T08:23:15.238Z,9.30
2023-04-04T08:25:44.051Z,8.68
2023-04-04T08:28:11.318Z,9.25
2023-04-04T08:30:38.838Z,9.10
2023-04-04T08:33:06.774Z,9.07
2023-04-04T08:35:34.138Z,9.13
2023-04-04T08:38:02.689Z,8.82
2023-04-04T08:40:32.682Z,8.25
2023-04-04T08:43:01.947Z,8.32
2023-04-04T08:45:30.878Z,9.13
2023-04-04T08:47:59.514Z,10.57
2023-04-04T08:50:27.582Z,9.18
2023-04-04T08:52:55.239Z,9.60
2023-04-04T08:55:22.603Z,10.63
2023-04-04T08:57:49.840Z,9.43
2023-04-04T09:00:18.549Z,9.60
2023-04-04T09:03:06.086Z,11.43
2023-04-04T09:05:33.842Z,10.00
2023-04-04T09:08:01.496Z,10.93
2023-04-04T09:10:29.872Z,10.77
2023-04-04T09:13:08.622Z,9.68
2023-04-04T09:15:44.196Z,9.93
2023-04-04T09:18:11.394Z,11.27
2023-04-04T09:20:38.837Z,10.18
2023-04-04T09:23:07.991Z,10.27
2023-04-04T09:25:36.148Z,10.35
2023-04-04T09:28:05.516Z,9.75
2023-04-04T09:30:33.992Z,10.40
2023-04-04T09:33:01.885Z,10.23
2023-04-04T09:35:29.037Z,10.20
2023-04-04T09:37:56.848Z,10.40
2023-04-04T09:40:26.393Z,10.63
2023-04-04T09:42:55.640Z,10.10
2023-04-04T09:45:32.242Z,10.57
2023-04-04T09:48:00.389Z,9.48
2023-04-04T09:50:30.239Z,9.90
2023-04-04T09:52:59.414Z,10.30
2023-04-04T09:55:38.525Z,9.30
2023-04-04T09:58:13.196Z,9.20
2023-04-04T10:00:48.348Z,10.30
2023-04-04T10:03:17.913Z,10.52
2023-04-04T10:05:50.094Z,9.85
2023-04-04T10:08:22.275Z,9.57
2023-04-04T10:11:02.722Z,9.90
2023-04-04T10:13:40.612Z,8.82
2023-04-04T10:16:08.924Z,9.32
2023-04-04T10:18:36.579Z,10.07
2023-04-04T10:21:15.360Z,8.35
2023-04-04T10:23:43.863Z,9.02
2023-04-04T10:26:12.738Z,8.93
2023-04-04T10:28:40.376Z,8.10
2023-04-04T10:31:11.099Z,8.50
2023-04-04T10:33:38.261Z,8.63
2023-04-04T10:36:08.346Z,8.88
2023-04-04T10:38:49.585Z,7.88
2023-04-04T10:41:17.564Z,8.65
2023-04-04T10:43:46.179Z,8.95
2023-04-04T10:46:16.361Z,8.68
2023-04-04T10:48:44.228Z,8.20
2023-04-04T10:51:12.469Z,8.57
2023-04-04T10:53:41.392Z,8.82
2023-04-04T10:56:09.387Z,8.63
2023-04-04T10:58:43.808Z,8.30
2023-04-04T11:01:11.147Z,8.90
2023-04-04T11:03:57.502Z,9.10
2023-04-04T11:06:40.516Z,8.27
2023-04-04T11:09:07.749Z,8.23
2023-04-04T11:11:55.367Z,8.35
2023-04-04T11:14:30.319Z,7.55
2023-04-04T11:16:59.082Z,7.93
2023-04-04T11:19:26.977Z,8.27
2023-04-04T11:21:55.548Z,7.90
2023-04-04T11:24:23.186Z,9.50
2023-04-04T11:26:50.367Z,8.88
2023-04-04T11:29:21.181Z,8.15
2023-04-04T11:31:50.728Z,8.15
2023-04-04T11:34:31.341Z,8.20
2023-04-04T11:37:01.808Z,8.17
2023-04-04T11:39:30.578Z,8.20
2023-04-04T11:42:14.476Z,8.55
2023-04-04T11:44:43.172Z,7.75
2023-04-04T11:47:11.278Z,7.25
2023-04-04T11:49:42.450Z,7.63
2023-04-04T11:52:10.775Z,6.93
2023-04-04T11:54:38.624Z,7.00
2023-04-04T11:57:09.409Z,7.30
2023-04-04T11:59:40.704Z,6.93
2023-04-04T12:02:09.001Z,7.78
2023-04-04T12:04:37.881Z,7.38
2023-04-04T12:07:07.449Z,5.85
2023-04-04T12:09:35.067Z,6.38
2023-04-04T12:12:03.556Z,6.07
2023-04-04T12:14:32.920Z,6.07
2023-04-04T12:17:01.636Z,6.13
2023-04-04T12:19:29.745Z,6.18
2023-04-04T12:21:58.037Z,6.45
2023-04-04T12:24:25.228Z,6.07
2023-04-04T12:26:53.363Z,6.95
2023-04-04T12:29:22.775Z,6.03
2023-04-04T12:31:50.713Z,6.47
2023-04-04T12:37:03.819Z,5.85
2023-04-04T12:39:31.957Z,5.72
2023-04-04T12:41:59.955Z,5.40
2023-04-04T12:44:29.184Z,5.82
2023-04-04T12:47:06.602Z,5.75
2023-04-04T12:49:44.213Z,6.00
2023-04-04T12:52:22.041Z,5.03
2023-04-04T12:54:59.100Z,5.68
2023-04-04T12:57:34.734Z,5.60
2023-04-04T13:00:02.391Z,5.35
2023-04-04T13:02:29.715Z,5.63
2023-04-04T13:05:00.123Z,5.38
2023-04-04T13:07:32.800Z,5.33
2023-04-04T13:10:02.817Z,4.63
2023-04-04T13:12:50.130Z,5.00
2023-04-04T13:15:17.819Z,5.22
2023-04-04T13:17:48.519Z,5.90
2023-04-04T13:20:16.828Z,4.65
2023-04-04T13:22:44.504Z,5.32
2023-04-04T13:25:12.309Z,4.55
2023-04-04T13:27:39.782Z,4.30
2023-04-04T13:30:09.907Z,4.90
2023-04-04T13:32:38.352Z,4.35
2023-04-04T13:35:05.841Z,5.03
2023-04-04T13:37:33.016Z,4.80
2023-04-04T13:40:00.213Z,4.70
2023-04-04T13:42:30.356Z,4.53
2023-04-04T13:44:57.664Z,4.55
2023-04-04T13:47:27.512Z,4.88
2023-04-04T13:49:55.177Z,4.05
2023-04-04T13:52:22.605Z,4.40
2023-04-04T13:54:50.431Z,4.28
2023-04-04T13:57:17.548Z,4.40
2023-04-04T13:59:44.708Z,4.68
2023-04-04T14:02:12.278Z,4.25
2023-04-04T14:04:39.522Z,4.45
2023-04-04T14:07:07.118Z,4.55
2023-04-04T14:09:34.204Z,4.85
2023-04-04T14:12:01.581Z,5.15
2023-04-04T14:14:28.750Z,5.00
2023-04-04T14:16:56.373Z,4.95
2023-04-04T14:19:23.507Z,5.10
2023-04-04T14:21:51.144Z,5.05
2023-04-04T14:24:18.705Z,4.95
2023-04-04T14:26:46.045Z,4.50
2023-04-04T14:29:13.195Z,5.38
2023-04-04T14:31:40.762Z,4.78
2023-04-04T14:34:07.942Z,5.55
2023-04-04T14:36:35.579Z,5.50
2023-04-04T14:39:02.993Z,4.60
2023-04-04T14:41:30.594Z,5.13
2023-04-04T14:43:57.834Z,5.32
2023-04-04T14:46:25.985Z,5.18
2023-04-04T14:48:53.366Z,4.82
2023-04-04T14:51:20.624Z,4.70
2023-04-04T14:53:47.801Z,5.20
2023-04-04T14:56:14.975Z,5.00
2023-04-04T14:58:42.167Z,5.03
2023-04-04T15:01:09.508Z,5.30
2023-04-04T15:03:36.666Z,4.75
2023-04-04T15:06:03.975Z,5.10
2023-04-04T15:08:31.260Z,5.05
2023-04-04T15:10:58.356Z,4.40
2023-04-04T15:13:25.522Z,5.05
2023-04-04T15:15:52.670Z,5.20
2023-04-04T15:18:19.945Z,6.07
2023-04-04T15:20:47.357Z,5.38
2023-04-04T15:23:14.778Z,5.40
2023-04-04T15:25:42.059Z,6.10
2023-04-04T15:28:09.276Z,5.95
2023-04-04T15:30:36.452Z,5.45
2023-04-04T15:33:03.759Z,5.25
2023-04-04T15:35:31.024Z,5.95
2023-04-04T15:37:58.166Z,4.85
2023-04-04T15:40:25.290Z,5.40
2023-04-04T15:42:52.562Z,4.97
2023-04-04T15:45:19.750Z,4.88
2023-04-04T15:47:46.944Z,4.90
2023-04-04T15:50:14.160Z,5.05
2023-04-04T15:52:41.810Z,5.70
2023-04-04T15:55:13.090Z,4.82
2023-04-04T15:57:40.558Z,4.40
2023-04-04T16:00:07.965Z,5.40
2023-04-04T16:02:35.380Z,4.93
2023-04-04T16:05:04.400Z,4.60
2023-04-04T16:07:32.338Z,6.75
2023-04-04T16:09:59.705Z,4.57
2023-04-04T16:12:27.079Z,4.85
2023-04-04T16:14:54.186Z,5.55
2023-04-04T16:17:21.326Z,5.47
2023-04-04T16:19:48.506Z,5.45
2023-04-04T16:22:15.870Z,6.03
2023-04-04T16:24:43.000Z,5.30
2023-04-04T16:27:10.265Z,5.78
2023-04-04T16:29:37.392Z,5.82
2023-04-04T16:32:05.877Z,5.88
2023-04-04T16:34:33.016Z,5.90
2023-04-04T16:37:00.303Z,5.20
2023-04-04T16:39:27.469Z,5.47
2023-04-04T16:41:54.742Z,5.82
2023-04-04T16:44:22.032Z,5.90
2023-04-04T16:46:49.189Z,5.70
2023-04-04T16:49:16.524Z,5.38
2023-04-04T16:51:43.692Z,5.68
2023-04-04T16:54:11.279Z,5.85
2023-04-04T16:56:38.765Z,6.72
2023-04-04T16:59:06.053Z,6.10
2023-04-04T17:01:33.601Z,9.48
2023-04-04T17:04:00.893Z,7.03
2023-04-04T17:06:28.032Z,6.18
2023-04-04T17:08:55.457Z,5.90
2023-04-04T17:11:22.649Z,6.07
2023-04-04T17:13:49.988Z,6.13
2023-04-04T17:16:17.286Z,6.38
2023-04-04T17:18:44.580Z,6.47
2023-04-04T17:21:11.706Z,6.57
2023-04-04T17:23:38.849Z,6.57
2023-04-04T17:26:06.253Z,6.53
2023-04-04T17:28:33.416Z,6.55
2023-04-04T17:31:03.645Z,6.75
2023-04-04T17:33:31.069Z,7.07
2023-04-04T17:35:58.208Z,6.43
2023-04-04T17:38:43.051Z,7.00
2023-04-04T17:41:10.192Z,6.75
2023-04-04T17:43:40.874Z,7.30
2023-04-04T17:46:09.174Z,7.88
2023-04-04T17:48:36.823Z,6.82
2023-04-04T17:51:09.217Z,6.78
2023-04-04T17:53:36.550Z,7.35
2023-04-04T17:56:03.770Z,7.50
2023-04-04T17:58:33.391Z,7.63
2023-04-04T18:01:02.210Z,8.05
2023-04-04T18:03:29.464Z,8.48
2023-04-04T18:05:57.275Z,8.55
2023-04-04T18:08:24.860Z,8.73
2023-04-04T18:10:54.693Z,8.38
2023-04-04T18:13:21.911Z,8.25
2023-04-04T18:15:50.784Z,9.13
2023-04-04T18:18:18.091Z,8.88
2023-04-04T18:20:45.336Z,9.32
2023-04-04T18:23:12.926Z,9.27
2023-04-04T18:25:40.108Z,9.23
2023-04-04T18:28:07.471Z,10.45
2023-04-04T18:30:36.647Z,8.55
2023-04-04T18:33:04.683Z,10.02
2023-04-04T18:35:32.154Z,9.52
2023-04-04T18:37:59.762Z,9.13
2023-04-04T18:40:27.102Z,9.48
2023-04-04T18:42:54.443Z,10.43
2023-04-04T18:45:29.937Z,9.70
2023-04-04T18:48:01.612Z,10.10
2023-04-04T18:50:28.841Z,9.85
2023-04-04T18:52:56.794Z,10.25
2023-04-04T18:55:24.416Z,10.30
2023-04-04T18:57:51.639Z,9.10
2023-04-04T19:00:19.085Z,10.88
2023-04-04T19:02:46.562Z,9.82
2023-04-04T19:05:16.086Z,10.32
2023-04-04T19:07:43.762Z,10.30
2023-04-04T19:10:11.090Z,10.35
2023-04-04T19:12:38.240Z,10.18
2023-04-04T19:15:06.845Z,9.82
2023-04-04T19:17:34.075Z,10.50
2023-04-04T19:20:01.292Z,10.57
2023-04-04T19:22:28.467Z,10.43
2023-04-04T19:24:55.626Z,9.90
2023-04-04T19:27:22.774Z,11.25
2023-04-04T19:29:49.918Z,10.57
2023-04-04T19:32:19.615Z,10.48
2023-04-04T19:34:47.499Z,10.70
2023-04-04T19:37:15.049Z,10.73
2023-04-04T19:39:43.825Z,10.82
2023-04-04T19:42:11.975Z,10.07
2023-04-04T19:44:40.597Z,9.55
2023-04-04T19:47:08.257Z,10.18
2023-04-04T19:49:38.024Z,10.45
2023-04-04T19:52:06.855Z,10.25
2023-04-04T19:54:39.001Z,10.27
2023-04-04T19:57:08.144Z,8.57
2023-04-04T19:59:54.214Z,9.30
2023-04-04T20:02:33.537Z,9.60
2023-04-04T20:05:01.269Z,9.38
2023-04-04T20:07:29.167Z,10.00
2023-04-04T20:09:56.804Z,10.05
2023-04-04T20:12:24.621Z,10.38
2023-04-04T20:14:52.091Z,10.05
2023-04-04T20:17:19.364Z,10.07
2023-04-04T20:19:46.862Z,10.48
2023-04-04T20:22:14.283Z,9.70
2023-04-04T20:24:43.440Z,10.40
2023-04-04T20:27:11.499Z,9.50
2023-04-04T20:29:40.301Z,8.65
2023-04-04T20:32:08.493Z,9.90
2023-04-04T20:34:43.750Z,9.63
2023-04-04T20:37:10.944Z,9.73
2023-04-04T20:39:43.812Z,9.75
2023-04-04T20:42:26.455Z,9.40
2023-04-04T20:44:54.216Z,9.30
2023-04-04T20:47:39.932Z,8.88
2023-04-04T20:50:22.431Z,9.75
2023-04-04T20:52:53.225Z,9.65
2023-04-04T20:55:21.085Z,9.70
2023-04-04T20:57:48.425Z,8.98
2023-04-04T21:00:34.008Z,8.57
2023-04-04T21:03:02.149Z,8.32
2023-04-04T21:05:30.489Z,8.95
2023-04-04T21:07:58.592Z,8.25
2023-04-04T21:10:45.858Z,8.80
2023-04-04T21:13:13.024Z,8.93
2023-04-04T21:15:40.738Z,9.23
2023-04-04T21:18:09.191Z,9.15
2023-04-04T21:20:49.182Z,9.15
2023-04-04T21:23:28.254Z,9.77
2023-04-04T21:26:00.040Z,8.07
2023-04-04T21:28:37.665Z,8.05
2023-04-04T21:31:13.904Z,8.82
2023-04-04T21:33:44.294Z,8.00
2023-04-04T21:36:12.082Z,7.65
2023-04-04T21:38:39.418Z,7.80
2023-04-04T21:41:17.198Z,7.07
2023-04-04T21:43:44.318Z,6.38
2023-04-04T21:46:11.517Z,7.80
2023-04-04T21:48:38.749Z,7.20
2023-04-04T21:51:06.166Z,6.40
2023-04-04T21:53:33.276Z,6.90
2023-04-04T21:56:00.416Z,6.30
2023-04-04T21:58:27.609Z,7.25
2023-04-04T22:00:54.691Z,6.38
2023-04-04T22:03:22.975Z,6.47
2023-04-04T22:05:50.622Z,6.40
2023-04-04T22:08:17.737Z,6.63
2023-04-04T22:10:50.175Z,6.13
2023-04-04T22:13:18.767Z,6.65
2023-04-04T22:15:49.673Z,6.97
2023-04-04T22:18:17.295Z,7.07
2023-04-04T22:20:54.863Z,6.78
2023-04-04T22:23:23.345Z,6.40
2023-04-04T22:25:51.875Z,7.32
2023-04-04T22:28:24.890Z,7.20
2023-04-04T22:30:52.135Z,6.60
2023-04-04T22:33:19.266Z,8.07
2023-04-04T22:35:46.524Z,7.70
2023-04-04T22:38:14.537Z,6.63
2023-04-04T22:40:42.080Z,7.78
2023-04-04T22:43:09.621Z,7.40
2023-04-04T22:45:36.838Z,7.15
2023-04-04T22:48:04.288Z,7.28
2023-04-04T22:50:31.462Z,7.10
2023-04-04T22:52:58.707Z,6.80
2023-04-04T22:55:26.793Z,7.78
2023-04-04T22:57:54.141Z,6.85
2023-04-04T23:00:21.489Z,7.35
2023-04-04T23:02:51.227Z,7.63
2023-04-04T23:05:19.107Z,6.43
2023-04-04T23:07:46.833Z,7.90
2023-04-04T23:10:16.104Z,7.78
2023-04-04T23:12:43.424Z,7.25
2023-04-04T23:15:10.644Z,8.13
2023-04-04T23:17:38.986Z,7.90
2023-04-04T23:20:09.888Z,7.57
2023-04-04T23:22:38.048Z,7.30
2023-04-04T23:25:06.562Z,7.95
2023-04-04T23:27:34.014Z,6.78
2023-04-04T23:30:04.799Z,7.25
2023-04-04T23:32:32.484Z,7.82
2023-04-04T23:34:59.790Z,7.40
2023-04-04T23:37:26.948Z,6.88
2023-04-04T23:39:54.105Z,6.40
2023-04-04T23:42:21.292Z,6.65
2023-04-04T23:44:48.396Z,7.70
2023-04-04T23:47:16.190Z,6.53
2023-04-04T23:49:43.503Z,7.57
2023-04-04T23:52:10.847Z,6.35
2023-04-04T23:54:38.118Z,5.97
2023-04-04T23:57:05.790Z,6.22
2023-04-04T23:59:32.971Z,6.28
